Meridian — EI6085 — position and weather

sailwx.info

Track history (hours):
 
Tides and Currents Weather Stations Pressure Air Temp Water Temp Dewpoint Dewpoint Depression Visibility Wind Speed Wind Dir Waves Ship Positions

Meridian

Last reported at 2014-Sep-15 10:14 UTC. Time now 2014-Sep-16 02:59 UTC.
Position N 54°38' W 008°27'.

Length 12 m.

Type: Fishing. MMSI: 250107450.

Date/timePositionNaut miles runAvg speedWind from/ knotsBaromVisibWave heightAir tempDewpointWater temp
2014-Sep-15 10:14N 54°38' W 008°27'2 2.3
2014-Sep-15 09:29N 54°36' W 008°27'2 1.8
2014-Sep-15 08:25N 54°38' W 008°27'0 0.0
2014-Sep-14 15:27N 54°38' W 008°27'3 3.3
2014-Sep-14 14:33N 54°37' W 008°31'2 1.6
2014-Sep-14 13:34N 54°36' W 008°34'1 0.7
2014-Sep-14 12:30N 54°35' W 008°34'1 0.9
2014-Sep-14 11:29N 54°36' W 008°32'2 2.0
2014-Sep-14 10:33N 54°36' W 008°29'2 1.8
2014-Sep-14 09:27N 54°38' W 008°26'1 0.7
2014-Sep-14 08:32N 54°38' W 008°27'0 0.0
2014-Sep-13 16:12N 54°38' W 008°27'0 0.6
2014-Sep-13 15:33N 54°38' W 008°26'1 1.3
2014-Sep-13 14:31N 54°37' W 008°27'2 1.6
2014-Sep-13 13:29N 54°35' W 008°29'0 0.4
2014-Sep-13 12:26N 54°35' W 008°28'1 1.2
2014-Sep-13 11:25N 54°36' W 008°27'0 0.6
2014-Sep-13 10:33N 54°36' W 008°27'1 1.1
2014-Sep-13 09:32N 54°37' W 008°26'0 0.4
2014-Sep-13 08:27N 54°38' W 008°26'0 0.4
2014-Sep-13 07:31N 54°38' W 008°27'0 0.0
2014-Sep-11 17:14N 54°38' W 008°27'0 0.6
2014-Sep-11 16:27N 54°38' W 008°26'1 1.0
2014-Sep-11 15:30N 54°37' W 008°27'2 1.6
2014-Sep-11 14:32N 54°38' W 008°27'0 0.0
2014-Sep-10 14:30N 54°38' W 008°27'6 6.1
2014-Sep-10 13:31N 54°34' W 008°34'0 0.3
2014-Sep-10 12:31N 54°34' W 008°33'0 0.5
2014-Sep-10 11:31N 54°34' W 008°33'1 0.6
2014-Sep-10 10:25N 54°34' W 008°32'4 4.1
2014-Sep-10 09:31N 54°37' W 008°27'2 1.6
2014-Sep-10 08:33N 54°38' W 008°27'0 0.0
2014-Sep-08 15:29N 54°38' W 008°27'2 1.9
2014-Sep-08 14:33N 54°36' W 008°28'2 1.7
2014-Sep-08 13:25N 54°38' W 008°30'4 4.1
2014-Sep-08 12:30N 54°37' W 008°36'3 2.6
2014-Sep-08 11:28N 54°37' W 008°41'5 5.4
2014-Sep-08 10:33N 54°36' W 008°32'3 3.3
2014-Sep-08 09:33N 54°37' W 008°27'1 1.3
2014-Sep-08 08:33N 54°38' W 008°27'0 0.0
2014-Sep-07 15:33N 54°38' W 008°27'2 2.2
2014-Sep-07 14:33N 54°36' W 008°29'2 2.5
2014-Sep-07 13:33N 54°36' W 008°34'1 0.9
2014-Sep-07 12:32N 54°36' W 008°35'1 0.6
2014-Sep-07 11:29N 54°36' W 008°34'1 1.1
2014-Sep-07 10:32N 54°35' W 008°32'3 3.3
2014-Sep-07 09:30N 54°36' W 008°27'0 0.4
2014-Sep-07 08:28N 54°37' W 008°27'1 0.1
2014-Sep-06 16:18N 54°38' W 008°27'1 1.5
2014-Sep-06 15:33N 54°37' W 008°27'6 5.8
2014-Sep-06 14:33N 54°36' W 008°37'2 2.4
2014-Sep-06 13:31N 54°37' W 008°41'4 4.1
2014-Sep-06 12:31N 54°36' W 008°34'1 0.7
2014-Sep-06 11:33N 54°35' W 008°33'1 1.0
2014-Sep-06 10:33N 54°35' W 008°32'2 2.0
2014-Sep-06 09:29N 54°36' W 008°28'2 2.3
2014-Sep-06 08:32N 54°38' W 008°27'0 0.2
2014-Sep-06 07:33N 54°38' W 008°27'  
Track history (hours):
 
Tides and Currents Weather Stations Pressure Air Temp Water Temp Dewpoint Dewpoint Depression Visibility Wind Speed Wind Dir Waves Ship Positions

Meridian

Last reported at 2014-Sep-15 10:14 UTC. Time now 2014-Sep-16 02:59 UTC.
Position N 54°38' W 008°27'.

Length 12 m.

Type: Fishing. MMSI: 250107450.

Date/timePositionNaut miles runAvg speedWind from/ knotsBaromVisibWave heightAir tempDewpointWater temp
2014-Sep-15 10:14N 54°38' W 008°27'2 2.3
2014-Sep-15 09:29N 54°36' W 008°27'2 1.8
2014-Sep-15 08:25N 54°38' W 008°27'0 0.0
2014-Sep-14 15:27N 54°38' W 008°27'3 3.3
2014-Sep-14 14:33N 54°37' W 008°31'2 1.6
2014-Sep-14 13:34N 54°36' W 008°34'1 0.7
2014-Sep-14 12:30N 54°35' W 008°34'1 0.9
2014-Sep-14 11:29N 54°36' W 008°32'2 2.0
2014-Sep-14 10:33N 54°36' W 008°29'2 1.8
2014-Sep-14 09:27N 54°38' W 008°26'1 0.7
2014-Sep-14 08:32N 54°38' W 008°27'0 0.0
2014-Sep-13 16:12N 54°38' W 008°27'0 0.6
2014-Sep-13 15:33N 54°38' W 008°26'1 1.3
2014-Sep-13 14:31N 54°37' W 008°27'2 1.6
2014-Sep-13 13:29N 54°35' W 008°29'0 0.4
2014-Sep-13 12:26N 54°35' W 008°28'1 1.2
2014-Sep-13 11:25N 54°36' W 008°27'0 0.6
2014-Sep-13 10:33N 54°36' W 008°27'1 1.1
2014-Sep-13 09:32N 54°37' W 008°26'0 0.4
2014-Sep-13 08:27N 54°38' W 008°26'0 0.4
2014-Sep-13 07:31N 54°38' W 008°27'0 0.0
2014-Sep-11 17:14N 54°38' W 008°27'0 0.6
2014-Sep-11 16:27N 54°38' W 008°26'1 1.0
2014-Sep-11 15:30N 54°37' W 008°27'2 1.6
2014-Sep-11 14:32N 54°38' W 008°27'0 0.0
2014-Sep-10 14:30N 54°38' W 008°27'6 6.1
2014-Sep-10 13:31N 54°34' W 008°34'0 0.3
2014-Sep-10 12:31N 54°34' W 008°33'0 0.5
2014-Sep-10 11:31N 54°34' W 008°33'1 0.6
2014-Sep-10 10:25N 54°34' W 008°32'4 4.1
2014-Sep-10 09:31N 54°37' W 008°27'2 1.6
2014-Sep-10 08:33N 54°38' W 008°27'0 0.0
2014-Sep-08 15:29N 54°38' W 008°27'2 1.9
2014-Sep-08 14:33N 54°36' W 008°28'2 1.7
2014-Sep-08 13:25N 54°38' W 008°30'4 4.1
2014-Sep-08 12:30N 54°37' W 008°36'3 2.6
2014-Sep-08 11:28N 54°37' W 008°41'5 5.4
2014-Sep-08 10:33N 54°36' W 008°32'3 3.3
2014-Sep-08 09:33N 54°37' W 008°27'1 1.3
2014-Sep-08 08:33N 54°38' W 008°27'0 0.0
2014-Sep-07 15:33N 54°38' W 008°27'2 2.2
2014-Sep-07 14:33N 54°36' W 008°29'2 2.5
2014-Sep-07 13:33N 54°36' W 008°34'1 0.9
2014-Sep-07 12:32N 54°36' W 008°35'1 0.6
2014-Sep-07 11:29N 54°36' W 008°34'1 1.1
2014-Sep-07 10:32N 54°35' W 008°32'3 3.3
2014-Sep-07 09:30N 54°36' W 008°27'0 0.4
2014-Sep-07 08:28N 54°37' W 008°27'1 0.1
2014-Sep-06 16:18N 54°38' W 008°27'1 1.5
2014-Sep-06 15:33N 54°37' W 008°27'6 5.8
2014-Sep-06 14:33N 54°36' W 008°37'2 2.4
2014-Sep-06 13:31N 54°37' W 008°41'4 4.1
2014-Sep-06 12:31N 54°36' W 008°34'1 0.7
2014-Sep-06 11:33N 54°35' W 008°33'1 1.0
2014-Sep-06 10:33N 54°35' W 008°32'2 2.0
2014-Sep-06 09:29N 54°36' W 008°28'2 2.3
2014-Sep-06 08:32N 54°38' W 008°27'0 0.2
2014-Sep-06 07:33N 54°38' W 008°27'  

Dump ship's entire track history